sensor_id;sensor_type;location;lat;lon;timestamp;temperature;humidity
75648;DHT22;64238;51.466;7.260;2022-10-31T00:01:58;26.20;57.10
75648;DHT22;64238;51.466;7.260;2022-10-31T00:04:25;26.20;57.20
75648;DHT22;64238;51.466;7.260;2022-10-31T00:06:50;26.20;57.30
75648;DHT22;64238;51.466;7.260;2022-10-31T00:09:16;26.20;57.20
75648;DHT22;64238;51.466;7.260;2022-10-31T00:11:41;26.20;57.30
75648;DHT22;64238;51.466;7.260;2022-10-31T00:14:07;26.10;57.30
75648;DHT22;64238;51.466;7.260;2022-10-31T00:16:32;26.30;57.40
75648;DHT22;64238;51.466;7.260;2022-10-31T00:19:01;26.20;57.30
75648;DHT22;64238;51.466;7.260;2022-10-31T00:21:28;26.20;57.10
75648;DHT22;64238;51.466;7.260;2022-10-31T00:23:54;26.20;57.10
75648;DHT22;64238;51.466;7.260;2022-10-31T00:26:20;26.20;57.30
75648;DHT22;64238;51.466;7.260;2022-10-31T00:28:46;26.20;57.10
75648;DHT22;64238;51.466;7.260;2022-10-31T00:31:12;26.20;57.20
75648;DHT22;64238;51.466;7.260;2022-10-31T00:33:39;26.10;57.30
75648;DHT22;64238;51.466;7.260;2022-10-31T00:36:06;26.20;57.10
75648;DHT22;64238;51.466;7.260;2022-10-31T00:38:31;26.20;57.40
75648;DHT22;64238;51.466;7.260;2022-10-31T00:40:57;26.20;57.50
75648;DHT22;64238;51.466;7.260;2022-10-31T00:43:23;26.10;57.10
75648;DHT22;64238;51.466;7.260;2022-10-31T00:45:48;26.20;57.30
75648;DHT22;64238;51.466;7.260;2022-10-31T00:48:14;26.20;57.00
75648;DHT22;64238;51.466;7.260;2022-10-31T00:50:41;26.20;57.40
75648;DHT22;64238;51.466;7.260;2022-10-31T00:53:07;26.20;57.30
75648;DHT22;64238;51.466;7.260;2022-10-31T00:55:33;26.20;57.20
75648;DHT22;64238;51.466;7.260;2022-10-31T00:57:58;26.20;57.30
75648;DHT22;64238;51.466;7.260;2022-10-31T01:00:24;26.10;57.30
75648;DHT22;64238;51.466;7.260;2022-10-31T01:02:50;26.20;57.40
75648;DHT22;64238;51.466;7.260;2022-10-31T01:05:16;26.10;57.40
75648;DHT22;64238;51.466;7.260;2022-10-31T01:07:41;26.20;57.30
75648;DHT22;64238;51.466;7.260;2022-10-31T01:10:09;26.20;57.40
75648;DHT22;64238;51.466;7.260;2022-10-31T01:12:38;26.20;57.50
75648;DHT22;64238;51.466;7.260;2022-10-31T01:15:05;26.10;57.40
75648;DHT22;64238;51.466;7.260;2022-10-31T01:17:30;26.20;57.60
75648;DHT22;64238;51.466;7.260;2022-10-31T01:19:56;26.10;57.20
75648;DHT22;64238;51.466;7.260;2022-10-31T01:22:21;26.10;57.50
75648;DHT22;64238;51.466;7.260;2022-10-31T01:24:47;26.20;57.40
75648;DHT22;64238;51.466;7.260;2022-10-31T01:27:12;26.20;57.40
75648;DHT22;64238;51.466;7.260;2022-10-31T01:29:38;26.10;57.30
75648;DHT22;64238;51.466;7.260;2022-10-31T01:32:04;26.10;57.40
75648;DHT22;64238;51.466;7.260;2022-10-31T01:34:29;26.10;57.20
75648;DHT22;64238;51.466;7.260;2022-10-31T01:36:55;26.10;57.60
75648;DHT22;64238;51.466;7.260;2022-10-31T01:39:21;26.10;57.40
75648;DHT22;64238;51.466;7.260;2022-10-31T01:41:49;26.00;57.20
75648;DHT22;64238;51.466;7.260;2022-10-31T01:49:18;26.10;57.40
75648;DHT22;64238;51.466;7.260;2022-10-31T01:51:50;26.10;57.60
75648;DHT22;64238;51.466;7.260;2022-10-31T01:54:20;26.20;57.40
75648;DHT22;64238;51.466;7.260;2022-10-31T01:56:49;26.10;57.50
75648;DHT22;64238;51.466;7.260;2022-10-31T01:59:18;26.10;57.50
75648;DHT22;64238;51.466;7.260;2022-10-31T02:01:44;26.10;57.30
75648;DHT22;64238;51.466;7.260;2022-10-31T02:04:10;26.10;57.50
75648;DHT22;64238;51.466;7.260;2022-10-31T02:06:46;26.20;57.60
75648;DHT22;64238;51.466;7.260;2022-10-31T02:09:14;26.10;57.50
75648;DHT22;64238;51.466;7.260;2022-10-31T02:11:40;26.10;57.60
75648;DHT22;64238;51.466;7.260;2022-10-31T02:14:06;26.10;57.60
75648;DHT22;64238;51.466;7.260;2022-10-31T02:16:32;26.10;57.50
75648;DHT22;64238;51.466;7.260;2022-10-31T02:18:57;26.20;57.40
75648;DHT22;64238;51.466;7.260;2022-10-31T02:26:56;26.10;57.60
75648;DHT22;64238;51.466;7.260;2022-10-31T02:32:46;26.10;57.70
75648;DHT22;64238;51.466;7.260;2022-10-31T02:35:39;26.00;57.70
75648;DHT22;64238;51.466;7.260;2022-10-31T02:38:38;26.00;57.60
75648;DHT22;64238;51.466;7.260;2022-10-31T02:41:20;26.00;57.80
75648;DHT22;64238;51.466;7.260;2022-10-31T02:44:03;26.00;57.70
75648;DHT22;64238;51.466;7.260;2022-10-31T02:46:35;26.00;57.70
75648;DHT22;64238;51.466;7.260;2022-10-31T02:49:10;26.00;57.80
75648;DHT22;64238;51.466;7.260;2022-10-31T02:51:38;26.10;57.80
75648;DHT22;64238;51.466;7.260;2022-10-31T02:54:04;26.00;57.70
75648;DHT22;64238;51.466;7.260;2022-10-31T02:56:30;26.00;57.90
75648;DHT22;64238;51.466;7.260;2022-10-31T02:58:59;26.10;57.80
75648;DHT22;64238;51.466;7.260;2022-10-31T03:08:06;26.00;57.80
75648;DHT22;64238;51.466;7.260;2022-10-31T03:10:56;25.90;57.90
75648;DHT22;64238;51.466;7.260;2022-10-31T03:13:26;26.00;57.60
75648;DHT22;64238;51.466;7.260;2022-10-31T03:16:09;26.10;57.70
75648;DHT22;64238;51.466;7.260;2022-10-31T03:18:47;26.00;58.00
75648;DHT22;64238;51.466;7.260;2022-10-31T03:21:27;26.00;57.70
75648;DHT22;64238;51.466;7.260;2022-10-31T03:23:54;26.00;57.50
75648;DHT22;64238;51.466;7.260;2022-10-31T03:26:22;26.10;57.90
75648;DHT22;64238;51.466;7.260;2022-10-31T03:28:56;26.00;58.10
75648;DHT22;64238;51.466;7.260;2022-10-31T03:31:26;26.00;57.90
75648;DHT22;64238;51.466;7.260;2022-10-31T03:33:54;26.00;57.80
75648;DHT22;64238;51.466;7.260;2022-10-31T03:36:22;26.00;57.80
75648;DHT22;64238;51.466;7.260;2022-10-31T03:38:48;26.00;57.70
75648;DHT22;64238;51.466;7.260;2022-10-31T03:41:19;25.90;57.80
75648;DHT22;64238;51.466;7.260;2022-10-31T03:43:52;25.90;58.10
75648;DHT22;64238;51.466;7.260;2022-10-31T03:46:19;26.00;57.90
75648;DHT22;64238;51.466;7.260;2022-10-31T03:48:45;26.00;57.70
75648;DHT22;64238;51.466;7.260;2022-10-31T03:51:22;26.00;57.80
75648;DHT22;64238;51.466;7.260;2022-10-31T03:53:57;26.00;57.70
75648;DHT22;64238;51.466;7.260;2022-10-31T03:56:35;25.90;57.90
75648;DHT22;64238;51.466;7.260;2022-10-31T04:01:39;26.00;57.60
75648;DHT22;64238;51.466;7.260;2022-10-31T04:04:06;26.00;57.90
75648;DHT22;64238;51.466;7.260;2022-10-31T04:06:34;26.00;57.70
75648;DHT22;64238;51.466;7.260;2022-10-31T04:09:03;25.90;57.70
75648;DHT22;64238;51.466;7.260;2022-10-31T04:11:34;25.90;57.80
75648;DHT22;64238;51.466;7.260;2022-10-31T04:14:02;26.00;57.80
75648;DHT22;64238;51.466;7.260;2022-10-31T04:16:29;25.90;58.10
75648;DHT22;64238;51.466;7.260;2022-10-31T04:18:55;26.00;57.50
75648;DHT22;64238;51.466;7.260;2022-10-31T04:21:27;26.00;57.90
75648;DHT22;64238;51.466;7.260;2022-10-31T04:23:53;25.90;57.80
75648;DHT22;64238;51.466;7.260;2022-10-31T04:26:19;25.90;57.90
75648;DHT22;64238;51.466;7.260;2022-10-31T04:28:44;25.90;58.00
75648;DHT22;64238;51.466;7.260;2022-10-31T04:31:11;25.90;57.90
75648;DHT22;64238;51.466;7.260;2022-10-31T04:33:37;26.00;57.90
75648;DHT22;64238;51.466;7.260;2022-10-31T04:36:03;26.00;57.80
75648;DHT22;64238;51.466;7.260;2022-10-31T04:38:30;25.90;57.90
75648;DHT22;64238;51.466;7.260;2022-10-31T04:40:55;25.90;58.00
75648;DHT22;64238;51.466;7.260;2022-10-31T04:43:21;25.90;57.70
75648;DHT22;64238;51.466;7.260;2022-10-31T04:45:47;25.90;58.20
75648;DHT22;64238;51.466;7.260;2022-10-31T04:48:13;26.00;57.80
75648;DHT22;64238;51.466;7.260;2022-10-31T04:50:38;25.90;57.70
75648;DHT22;64238;51.466;7.260;2022-10-31T04:53:04;25.90;58.00
75648;DHT22;64238;51.466;7.260;2022-10-31T04:55:29;25.90;58.00
75648;DHT22;64238;51.466;7.260;2022-10-31T04:57:55;25.90;57.90
75648;DHT22;64238;51.466;7.260;2022-10-31T05:00:22;25.90;57.80
75648;DHT22;64238;51.466;7.260;2022-10-31T05:02:49;25.90;57.70
75648;DHT22;64238;51.466;7.260;2022-10-31T05:05:17;25.80;58.00
75648;DHT22;64238;51.466;7.260;2022-10-31T05:07:44;25.90;58.00
75648;DHT22;64238;51.466;7.260;2022-10-31T05:10:11;25.90;58.00
75648;DHT22;64238;51.466;7.260;2022-10-31T05:12:38;25.90;57.90
75648;DHT22;64238;51.466;7.260;2022-10-31T05:15:04;25.80;57.80
75648;DHT22;64238;51.466;7.260;2022-10-31T05:17:31;25.90;57.90
75648;DHT22;64238;51.466;7.260;2022-10-31T05:19:57;25.90;57.80
75648;DHT22;64238;51.466;7.260;2022-10-31T05:22:22;25.90;58.00
75648;DHT22;64238;51.466;7.260;2022-10-31T05:24:48;25.90;57.80
75648;DHT22;64238;51.466;7.260;2022-10-31T05:27:13;25.90;58.00
75648;DHT22;64238;51.466;7.260;2022-10-31T05:29:39;25.80;57.90
75648;DHT22;64238;51.466;7.260;2022-10-31T05:32:04;25.90;57.80
75648;DHT22;64238;51.466;7.260;2022-10-31T05:34:30;25.90;57.80
75648;DHT22;64238;51.466;7.260;2022-10-31T05:36:55;25.90;57.70
75648;DHT22;64238;51.466;7.260;2022-10-31T05:39:21;25.80;57.70
75648;DHT22;64238;51.466;7.260;2022-10-31T05:41:46;25.90;57.80
75648;DHT22;64238;51.466;7.260;2022-10-31T05:44:12;25.90;57.80
75648;DHT22;64238;51.466;7.260;2022-10-31T05:46:37;25.90;57.90
75648;DHT22;64238;51.466;7.260;2022-10-31T05:49:03;25.80;58.00
75648;DHT22;64238;51.466;7.260;2022-10-31T05:51:29;25.90;57.80
75648;DHT22;64238;51.466;7.260;2022-10-31T05:53:54;25.80;57.80
75648;DHT22;64238;51.466;7.260;2022-10-31T05:56:20;25.80;57.70
75648;DHT22;64238;51.466;7.260;2022-10-31T05:58:45;25.90;57.80
75648;DHT22;64238;51.466;7.260;2022-10-31T06:01:11;25.90;58.00
75648;DHT22;64238;51.466;7.260;2022-10-31T06:03:36;25.80;58.10
75648;DHT22;64238;51.466;7.260;2022-10-31T06:06:02;25.80;58.10
75648;DHT22;64238;51.466;7.260;2022-10-31T06:08:27;25.80;57.70
75648;DHT22;64238;51.466;7.260;2022-10-31T06:10:53;25.80;57.80
75648;DHT22;64238;51.466;7.260;2022-10-31T06:13:19;25.80;57.80
75648;DHT22;64238;51.466;7.260;2022-10-31T06:15:44;25.80;57.70
75648;DHT22;64238;51.466;7.260;2022-10-31T06:18:10;25.80;57.50
75648;DHT22;64238;51.466;7.260;2022-10-31T06:20:36;25.80;57.70
75648;DHT22;64238;51.466;7.260;2022-10-31T06:23:02;25.80;57.70
75648;DHT22;64238;51.466;7.260;2022-10-31T06:25:28;25.70;57.60
75648;DHT22;64238;51.466;7.260;2022-10-31T06:27:54;25.70;57.60
75648;DHT22;64238;51.466;7.260;2022-10-31T06:30:19;25.80;57.80
75648;DHT22;64238;51.466;7.260;2022-10-31T06:32:45;25.80;57.80
75648;DHT22;64238;51.466;7.260;2022-10-31T06:35:10;25.80;57.80
75648;DHT22;64238;51.466;7.260;2022-10-31T06:37:36;25.70;57.90
75648;DHT22;64238;51.466;7.260;2022-10-31T06:40:02;25.70;57.80
75648;DHT22;64238;51.466;7.260;2022-10-31T06:42:28;25.80;57.90
75648;DHT22;64238;51.466;7.260;2022-10-31T06:44:53;25.70;57.70
75648;DHT22;64238;51.466;7.260;2022-10-31T06:47:19;25.80;57.60
75648;DHT22;64238;51.466;7.260;2022-10-31T06:49:44;25.80;57.80
75648;DHT22;64238;51.466;7.260;2022-10-31T06:52:10;25.80;57.80
75648;DHT22;64238;51.466;7.260;2022-10-31T06:54:36;25.80;57.60
75648;DHT22;64238;51.466;7.260;2022-10-31T06:57:01;25.80;57.40
75648;DHT22;64238;51.466;7.260;2022-10-31T06:59:27;25.80;57.30
75648;DHT22;64238;51.466;7.260;2022-10-31T07:01:52;25.80;57.60
75648;DHT22;64238;51.466;7.260;2022-10-31T07:04:18;25.70;57.40
75648;DHT22;64238;51.466;7.260;2022-10-31T07:06:44;25.70;57.20
75648;DHT22;64238;51.466;7.260;2022-10-31T07:09:10;25.80;57.40
75648;DHT22;64238;51.466;7.260;2022-10-31T07:11:35;25.80;57.40
75648;DHT22;64238;51.466;7.260;2022-10-31T07:14:01;25.80;57.50
75648;DHT22;64238;51.466;7.260;2022-10-31T07:16:26;25.80;57.50
75648;DHT22;64238;51.466;7.260;2022-10-31T07:18:52;25.80;57.30
75648;DHT22;64238;51.466;7.260;2022-10-31T07:21:17;25.70;57.10
75648;DHT22;64238;51.466;7.260;2022-10-31T07:23:43;25.80;57.30
75648;DHT22;64238;51.466;7.260;2022-10-31T07:26:10;25.80;57.50
75648;DHT22;64238;51.466;7.260;2022-10-31T07:28:35;25.70;57.20
75648;DHT22;64238;51.466;7.260;2022-10-31T07:31:01;25.80;57.20
75648;DHT22;64238;51.466;7.260;2022-10-31T07:33:26;25.80;57.00
75648;DHT22;64238;51.466;7.260;2022-10-31T07:35:53;25.80;57.00
75648;DHT22;64238;51.466;7.260;2022-10-31T07:38:18;25.90;57.20
75648;DHT22;64238;51.466;7.260;2022-10-31T07:40:50;25.80;57.40
75648;DHT22;64238;51.466;7.260;2022-10-31T07:43:16;25.80;57.10
75648;DHT22;64238;51.466;7.260;2022-10-31T07:45:42;25.70;57.10
75648;DHT22;64238;51.466;7.260;2022-10-31T07:48:07;25.80;57.20
75648;DHT22;64238;51.466;7.260;2022-10-31T07:50:33;25.80;57.10
75648;DHT22;64238;51.466;7.260;2022-10-31T07:53:10;25.90;57.20
75648;DHT22;64238;51.466;7.260;2022-10-31T07:55:36;25.80;57.10
75648;DHT22;64238;51.466;7.260;2022-10-31T07:58:04;25.70;57.50
75648;DHT22;64238;51.466;7.260;2022-10-31T08:00:31;25.80;57.10
75648;DHT22;64238;51.466;7.260;2022-10-31T08:03:06;25.80;57.30
75648;DHT22;64238;51.466;7.260;2022-10-31T08:05:32;25.70;57.20
75648;DHT22;64238;51.466;7.260;2022-10-31T08:07:58;25.80;57.10
75648;DHT22;64238;51.466;7.260;2022-10-31T08:10:24;25.90;57.30
75648;DHT22;64238;51.466;7.260;2022-10-31T08:13:07;25.80;57.20
75648;DHT22;64238;51.466;7.260;2022-10-31T08:15:33;25.90;57.10
75648;DHT22;64238;51.466;7.260;2022-10-31T08:18:02;25.80;57.00
75648;DHT22;64238;51.466;7.260;2022-10-31T08:20:28;25.80;57.10
75648;DHT22;64238;51.466;7.260;2022-10-31T08:22:59;25.80;57.10
75648;DHT22;64238;51.466;7.260;2022-10-31T08:25:25;25.80;56.90
75648;DHT22;64238;51.466;7.260;2022-10-31T08:27:53;25.80;57.20
75648;DHT22;64238;51.466;7.260;2022-10-31T08:30:20;25.80;57.20
75648;DHT22;64238;51.466;7.260;2022-10-31T08:32:46;25.90;57.00
75648;DHT22;64238;51.466;7.260;2022-10-31T08:35:12;25.80;57.10
75648;DHT22;64238;51.466;7.260;2022-10-31T08:37:37;25.80;57.20
75648;DHT22;64238;51.466;7.260;2022-10-31T08:40:04;25.80;57.30
75648;DHT22;64238;51.466;7.260;2022-10-31T08:42:29;25.80;57.10
75648;DHT22;64238;51.466;7.260;2022-10-31T08:44:55;25.90;57.10
75648;DHT22;64238;51.466;7.260;2022-10-31T08:47:21;25.80;57.10
75648;DHT22;64238;51.466;7.260;2022-10-31T08:49:46;25.90;57.20
75648;DHT22;64238;51.466;7.260;2022-10-31T08:52:12;25.90;56.90
75648;DHT22;64238;51.466;7.260;2022-10-31T08:54:37;25.90;57.10
75648;DHT22;64238;51.466;7.260;2022-10-31T08:57:03;25.90;57.10
75648;DHT22;64238;51.466;7.260;2022-10-31T08:59:28;25.90;57.10
75648;DHT22;64238;51.466;7.260;2022-10-31T09:01:54;25.90;57.20
75648;DHT22;64238;51.466;7.260;2022-10-31T09:04:19;26.00;57.00
75648;DHT22;64238;51.466;7.260;2022-10-31T09:06:45;26.00;57.00
75648;DHT22;64238;51.466;7.260;2022-10-31T09:09:10;25.90;57.00
75648;DHT22;64238;51.466;7.260;2022-10-31T09:11:36;25.90;57.30
75648;DHT22;64238;51.466;7.260;2022-10-31T09:14:01;26.00;57.00
75648;DHT22;64238;51.466;7.260;2022-10-31T09:16:27;25.80;57.10
75648;DHT22;64238;51.466;7.260;2022-10-31T09:18:53;25.90;57.10
75648;DHT22;64238;51.466;7.260;2022-10-31T09:21:18;25.90;57.30
75648;DHT22;64238;51.466;7.260;2022-10-31T09:23:44;25.90;57.40
75648;DHT22;64238;51.466;7.260;2022-10-31T09:26:09;25.90;57.30
75648;DHT22;64238;51.466;7.260;2022-10-31T09:28:35;26.00;57.20
75648;DHT22;64238;51.466;7.260;2022-10-31T09:31:00;26.00;57.00
75648;DHT22;64238;51.466;7.260;2022-10-31T09:33:26;25.90;57.20
75648;DHT22;64238;51.466;7.260;2022-10-31T09:35:51;26.00;57.20
75648;DHT22;64238;51.466;7.260;2022-10-31T09:38:19;26.00;57.10
75648;DHT22;64238;51.466;7.260;2022-10-31T09:41:05;26.10;57.00
75648;DHT22;64238;51.466;7.260;2022-10-31T09:44:03;26.10;57.30
75648;DHT22;64238;51.466;7.260;2022-10-31T09:46:54;26.10;57.50
75648;DHT22;64238;51.466;7.260;2022-10-31T09:49:48;26.10;57.30
75648;DHT22;64238;51.466;7.260;2022-10-31T09:52:29;26.10;57.40
75648;DHT22;64238;51.466;7.260;2022-10-31T09:55:18;26.00;57.40
75648;DHT22;64238;51.466;7.260;2022-10-31T09:57:44;26.00;57.30
75648;DHT22;64238;51.466;7.260;2022-10-31T10:00:19;26.10;57.40
75648;DHT22;64238;51.466;7.260;2022-10-31T10:05:51;26.10;57.40
75648;DHT22;64238;51.466;7.260;2022-10-31T10:08:21;26.10;57.20
75648;DHT22;64238;51.466;7.260;2022-10-31T10:11:06;26.10;57.50
75648;DHT22;64238;51.466;7.260;2022-10-31T10:16:14;26.10;57.30
75648;DHT22;64238;51.466;7.260;2022-10-31T10:19:17;26.10;57.20
75648;DHT22;64238;51.466;7.260;2022-10-31T10:21:59;26.10;57.20
75648;DHT22;64238;51.466;7.260;2022-10-31T10:24:47;26.10;57.30
75648;DHT22;64238;51.466;7.260;2022-10-31T10:35:21;26.30;57.40
75648;DHT22;64238;51.466;7.260;2022-10-31T10:37:51;26.20;57.70
75648;DHT22;64238;51.466;7.260;2022-10-31T10:40:21;26.20;57.60
75648;DHT22;64238;51.466;7.260;2022-10-31T10:43:19;26.20;57.50
75648;DHT22;64238;51.466;7.260;2022-10-31T10:49:18;26.30;57.40
75648;DHT22;64238;51.466;7.260;2022-10-31T10:52:06;26.30;57.70
75648;DHT22;64238;51.466;7.260;2022-10-31T10:59:30;26.30;57.80
75648;DHT22;64238;51.466;7.260;2022-10-31T11:01:58;26.30;57.60
75648;DHT22;64238;51.466;7.260;2022-10-31T11:07:21;26.30;57.80
75648;DHT22;64238;51.466;7.260;2022-10-31T11:09:47;26.30;57.70
75648;DHT22;64238;51.466;7.260;2022-10-31T11:12:30;26.30;57.40
75648;DHT22;64238;51.466;7.260;2022-10-31T11:15:05;26.40;56.80
75648;DHT22;64238;51.466;7.260;2022-10-31T11:17:36;26.40;56.80
75648;DHT22;64238;51.466;7.260;2022-10-31T11:22:44;26.30;57.80
75648;DHT22;64238;51.466;7.260;2022-10-31T11:27:44;26.40;56.90
75648;DHT22;64238;51.466;7.260;2022-10-31T11:30:13;26.40;56.90
75648;DHT22;64238;51.466;7.260;2022-10-31T11:32:48;26.40;56.80
75648;DHT22;64238;51.466;7.260;2022-10-31T11:35:17;26.30;57.80
75648;DHT22;64238;51.466;7.260;2022-10-31T11:37:45;26.40;56.90
75648;DHT22;64238;51.466;7.260;2022-10-31T11:40:16;26.40;56.90
75648;DHT22;64238;51.466;7.260;2022-10-31T11:42:42;26.40;56.70
75648;DHT22;64238;51.466;7.260;2022-10-31T11:47:53;26.40;57.00
75648;DHT22;64238;51.466;7.260;2022-10-31T11:52:58;26.50;56.90
75648;DHT22;64238;51.466;7.260;2022-10-31T11:57:57;26.40;57.10
75648;DHT22;64238;51.466;7.260;2022-10-31T12:02:50;26.50;57.00
75648;DHT22;64238;51.466;7.260;2022-10-31T12:05:27;26.50;57.00
75648;DHT22;64238;51.466;7.260;2022-10-31T12:07:58;26.50;56.90
75648;DHT22;64238;51.466;7.260;2022-10-31T12:10:30;26.40;57.10
75648;DHT22;64238;51.466;7.260;2022-10-31T12:16:00;26.50;57.00
75648;DHT22;64238;51.466;7.260;2022-10-31T12:18:37;26.40;57.20
75648;DHT22;64238;51.466;7.260;2022-10-31T12:41:09;26.50;56.90
75648;DHT22;64238;51.466;7.260;2022-10-31T12:43:46;26.50;57.00
75648;DHT22;64238;51.466;7.260;2022-10-31T12:54:57;26.60;57.10
75648;DHT22;64238;51.466;7.260;2022-10-31T13:00:02;26.60;57.10
75648;DHT22;64238;51.466;7.260;2022-10-31T13:02:51;26.60;57.30
75648;DHT22;64238;51.466;7.260;2022-10-31T13:05:37;26.60;57.10
75648;DHT22;64238;51.466;7.260;2022-10-31T13:08:23;26.60;57.20
75648;DHT22;64238;51.466;7.260;2022-10-31T13:10:56;26.60;57.30
75648;DHT22;64238;51.466;7.260;2022-10-31T13:13:30;26.60;57.30
75648;DHT22;64238;51.466;7.260;2022-10-31T13:16:04;26.60;57.10
75648;DHT22;64238;51.466;7.260;2022-10-31T13:19:25;26.60;57.10
75648;DHT22;64238;51.466;7.260;2022-10-31T13:21:33;26.60;57.20
75648;DHT22;64238;51.466;7.260;2022-10-31T13:24:04;26.60;57.00
75648;DHT22;64238;51.466;7.260;2022-10-31T13:26:44;26.60;57.00
75648;DHT22;64238;51.466;7.260;2022-10-31T13:29:30;26.70;57.00
75648;DHT22;64238;51.466;7.260;2022-10-31T13:32:00;26.70;57.10
75648;DHT22;64238;51.466;7.260;2022-10-31T13:34:37;26.60;56.90
75648;DHT22;64238;51.466;7.260;2022-10-31T13:37:28;26.60;57.10
75648;DHT22;64238;51.466;7.260;2022-10-31T13:45:53;26.60;57.20
75648;DHT22;64238;51.466;7.260;2022-10-31T13:48:33;26.60;56.80
75648;DHT22;64238;51.466;7.260;2022-10-31T13:51:02;26.60;57.10
75648;DHT22;64238;51.466;7.260;2022-10-31T13:58:34;26.60;57.20
75648;DHT22;64238;51.466;7.260;2022-10-31T14:03:43;26.60;57.00
75648;DHT22;64238;51.466;7.260;2022-10-31T14:06:10;26.70;57.20
75648;DHT22;64238;51.466;7.260;2022-10-31T14:08:40;26.70;57.10
75648;DHT22;64238;51.466;7.260;2022-10-31T14:11:09;26.60;57.10
75648;DHT22;64238;51.466;7.260;2022-10-31T14:13:45;26.60;57.20
75648;DHT22;64238;51.466;7.260;2022-10-31T14:16:23;26.70;57.30
75648;DHT22;64238;51.466;7.260;2022-10-31T14:18:57;26.60;57.10
75648;DHT22;64238;51.466;7.260;2022-10-31T14:23:50;26.70;56.90
75648;DHT22;64238;51.466;7.260;2022-10-31T14:28:57;26.70;56.60
75648;DHT22;64238;51.466;7.260;2022-10-31T14:31:29;26.80;56.70
75648;DHT22;64238;51.466;7.260;2022-10-31T14:34:34;26.80;56.60
75648;DHT22;64238;51.466;7.260;2022-10-31T14:40:14;26.80;56.20
75648;DHT22;64238;51.466;7.260;2022-10-31T14:42:54;26.80;56.40
75648;DHT22;64238;51.466;7.260;2022-10-31T14:45:32;26.90;56.00
75648;DHT22;64238;51.466;7.260;2022-10-31T14:48:17;26.80;55.90
75648;DHT22;64238;51.466;7.260;2022-10-31T14:50:51;26.80;56.00
75648;DHT22;64238;51.466;7.260;2022-10-31T14:53:30;26.80;56.10
75648;DHT22;64238;51.466;7.260;2022-10-31T14:55:57;26.90;56.00
75648;DHT22;64238;51.466;7.260;2022-10-31T14:58:35;26.90;55.80
75648;DHT22;64238;51.466;7.260;2022-10-31T15:01:02;26.80;55.60
75648;DHT22;64238;51.466;7.260;2022-10-31T15:03:34;26.80;55.70
75648;DHT22;64238;51.466;7.260;2022-10-31T15:06:11;26.80;55.80
75648;DHT22;64238;51.466;7.260;2022-10-31T15:08:45;26.90;55.50
75648;DHT22;64238;51.466;7.260;2022-10-31T15:11:20;26.80;55.30
75648;DHT22;64238;51.466;7.260;2022-10-31T15:13:49;26.80;55.40
75648;DHT22;64238;51.466;7.260;2022-10-31T15:16:21;26.80;55.70
75648;DHT22;64238;51.466;7.260;2022-10-31T15:18:54;26.70;55.40
75648;DHT22;64238;51.466;7.260;2022-10-31T15:21:21;26.80;55.40
75648;DHT22;64238;51.466;7.260;2022-10-31T15:23:47;26.80;55.70
75648;DHT22;64238;51.466;7.260;2022-10-31T15:26:18;26.80;55.50
75648;DHT22;64238;51.466;7.260;2022-10-31T15:28:44;26.80;55.50
75648;DHT22;64238;51.466;7.260;2022-10-31T15:31:16;26.80;55.50
75648;DHT22;64238;51.466;7.260;2022-10-31T15:33:44;26.80;55.50
75648;DHT22;64238;51.466;7.260;2022-10-31T15:36:25;26.80;55.40
75648;DHT22;64238;51.466;7.260;2022-10-31T15:38:51;26.80;55.50
75648;DHT22;64238;51.466;7.260;2022-10-31T15:41:39;26.80;55.40
75648;DHT22;64238;51.466;7.260;2022-10-31T15:44:39;26.80;55.40
75648;DHT22;64238;51.466;7.260;2022-10-31T15:47:15;26.70;55.20
75648;DHT22;64238;51.466;7.260;2022-10-31T15:49:55;26.60;55.40
75648;DHT22;64238;51.466;7.260;2022-10-31T15:52:29;26.60;55.50
75648;DHT22;64238;51.466;7.260;2022-10-31T15:55:03;26.70;55.50
75648;DHT22;64238;51.466;7.260;2022-10-31T15:57:29;26.70;55.70
75648;DHT22;64238;51.466;7.260;2022-10-31T15:59:56;26.70;55.30
75648;DHT22;64238;51.466;7.260;2022-10-31T16:02:24;26.80;55.60
75648;DHT22;64238;51.466;7.260;2022-10-31T16:05:00;26.70;55.60
75648;DHT22;64238;51.466;7.260;2022-10-31T16:07:28;26.70;55.60
75648;DHT22;64238;51.466;7.260;2022-10-31T16:09:56;26.70;55.70
75648;DHT22;64238;51.466;7.260;2022-10-31T16:12:23;26.80;55.70
75648;DHT22;64238;51.466;7.260;2022-10-31T16:14:51;26.70;55.60
75648;DHT22;64238;51.466;7.260;2022-10-31T16:17:19;26.60;55.50
75648;DHT22;64238;51.466;7.260;2022-10-31T16:19:51;26.70;55.80
75648;DHT22;64238;51.466;7.260;2022-10-31T16:22:46;26.70;55.50
75648;DHT22;64238;51.466;7.260;2022-10-31T16:25:25;26.70;55.70
75648;DHT22;64238;51.466;7.260;2022-10-31T16:27:53;26.70;55.50
75648;DHT22;64238;51.466;7.260;2022-10-31T16:30:44;26.70;55.60
75648;DHT22;64238;51.466;7.260;2022-10-31T16:33:22;26.70;55.50
75648;DHT22;64238;51.466;7.260;2022-10-31T16:35:49;26.60;55.70
75648;DHT22;64238;51.466;7.260;2022-10-31T16:38:14;26.60;55.50
75648;DHT22;64238;51.466;7.260;2022-10-31T16:40:41;26.70;55.60
75648;DHT22;64238;51.466;7.260;2022-10-31T16:43:15;26.70;55.60
75648;DHT22;64238;51.466;7.260;2022-10-31T16:45:52;26.60;55.70
75648;DHT22;64238;51.466;7.260;2022-10-31T16:48:20;26.70;55.40
75648;DHT22;64238;51.466;7.260;2022-10-31T16:50:47;26.60;55.60
75648;DHT22;64238;51.466;7.260;2022-10-31T16:53:14;26.60;55.40
75648;DHT22;64238;51.466;7.260;2022-10-31T16:55:53;26.60;55.50
75648;DHT22;64238;51.466;7.260;2022-10-31T16:58:28;26.60;55.40
75648;DHT22;64238;51.466;7.260;2022-10-31T17:00:55;26.60;55.10
75648;DHT22;64238;51.466;7.260;2022-10-31T17:03:21;26.60;54.90
75648;DHT22;64238;51.466;7.260;2022-10-31T17:05:47;26.50;55.10
75648;DHT22;64238;51.466;7.260;2022-10-31T17:08:13;26.50;54.90
75648;DHT22;64238;51.466;7.260;2022-10-31T17:10:39;26.60;55.20
75648;DHT22;64238;51.466;7.260;2022-10-31T17:13:08;26.60;55.40
75648;DHT22;64238;51.466;7.260;2022-10-31T17:15:41;26.60;55.20
75648;DHT22;64238;51.466;7.260;2022-10-31T17:18:12;26.60;55.40
75648;DHT22;64238;51.466;7.260;2022-10-31T17:20:37;26.50;55.50
75648;DHT22;64238;51.466;7.260;2022-10-31T17:23:03;26.60;55.40
75648;DHT22;64238;51.466;7.260;2022-10-31T17:25:30;26.50;55.20
75648;DHT22;64238;51.466;7.260;2022-10-31T17:27:56;26.50;55.20
75648;DHT22;64238;51.466;7.260;2022-10-31T17:30:22;26.60;55.20
75648;DHT22;64238;51.466;7.260;2022-10-31T17:32:49;26.50;55.50
75648;DHT22;64238;51.466;7.260;2022-10-31T17:35:15;26.50;55.30
75648;DHT22;64238;51.466;7.260;2022-10-31T17:37:42;26.60;55.40
75648;DHT22;64238;51.466;7.260;2022-10-31T17:40:09;26.50;55.40
75648;DHT22;64238;51.466;7.260;2022-10-31T17:42:35;26.50;55.30
75648;DHT22;64238;51.466;7.260;2022-10-31T17:45:00;26.50;55.70
75648;DHT22;64238;51.466;7.260;2022-10-31T17:47:26;26.40;55.70